»·PEaware :: N1013M KBUR-KLAS

N1013M :: KBUR-KLAS

FLIGHT INFORMATION

Flight Status: Arrived
Operator: Privately registered:
United States
More flights under this callsign
Pilot: Frederick Y. (33352)
Aircraft: CESSNA 172 SKYHAWK
(C172)
More flights by this aircraft type
Origin: KBUR Bob Hope-Burbank
United States
Destination: KLAS McCarran Intl
United States
More flights between these airports :: More routes between these airports
Route: VNY3 DAG CRESO4
File this flight plan on PilotEdge
Remarks:
Altitude:
(Current/Filed)
11,000ft
Speed:
(Current/Filed)
110kts
Departed: 27-Feb-21 01:37 PM
Arrived: 27-Feb-21 03:36 PM
Distance/Time
Traveled:
193nm/1:59
Distance/Time
To Go:
Arrived

Flight Plot

Page will automatically refresh every two minutes.

Flight plan parsing failed; only flown route is shown


Map Options




Map Legend


Flown Route
Filed Route
Departure Airport
Arrival Airport
Navaid (VOR, NDB)
Fix

Horizontal Profiles

Position Reports

Time Latitude Longitude Heading Altitude Ground
Speed
27-Feb-21 13:14 34.200211 -118.358868 280 737ft 0kts
27-Feb-21 13:15 34.200211 -118.358868 280 737ft 0kts
27-Feb-21 13:16 34.200211 -118.358868 280 737ft 0kts
27-Feb-21 13:17 34.200211 -118.358868 280 737ft 0kts
27-Feb-21 13:18 34.200211 -118.358868 280 737ft 0kts
27-Feb-21 13:19 34.200211 -118.358868 280 737ft 0kts
27-Feb-21 13:20 34.200211 -118.358868 280 737ft 0kts
27-Feb-21 13:21 34.200211 -118.358868 280 737ft 0kts
27-Feb-21 13:22 34.200211 -118.358868 280 737ft 0kts
27-Feb-21 13:23 34.200211 -118.358868 280 737ft 0kts
27-Feb-21 13:24 34.200211 -118.358868 280 737ft 0kts
27-Feb-21 13:25 34.200211 -118.358868 280 737ft 0kts
27-Feb-21 13:26 34.200211 -118.358868 280 737ft 0kts
27-Feb-21 13:27 34.200211 -118.358868 280 737ft 0kts
27-Feb-21 13:28 34.200211 -118.358868 280 737ft 0kts
27-Feb-21 13:29 34.199707 -118.358824 130 737ft 4kts
27-Feb-21 13:30 34.199677 -118.358774 124 737ft 0kts
27-Feb-21 13:31 34.198631 -118.357972 184 737ft 12kts
27-Feb-21 13:32 34.195348 -118.356809 173 737ft 15kts
27-Feb-21 13:33 34.194740 -118.356659 167 737ft 0kts
27-Feb-21 13:34 34.194740 -118.356659 167 737ft 0kts
27-Feb-21 13:35 34.195156 -118.355758 348 737ft 23kts
27-Feb-21 13:36 34.210629 -118.360106 327 1415ft 64kts
27-Feb-21 13:37 34.211803 -118.386589 282 2116ft 91kts
27-Feb-21 13:38 34.211206 -118.417093 282 2890ft 88kts
27-Feb-21 13:39 34.210388 -118.445834 281 3696ft 81kts
27-Feb-21 13:40 34.209520 -118.473623 281 4412ft 85kts
27-Feb-21 13:41 34.211285 -118.501175 314 5139ft 76kts
27-Feb-21 13:42 34.229199 -118.499520 17 5837ft 77kts
27-Feb-21 13:43 34.247921 -118.487916 14 6533ft 74kts
27-Feb-21 13:44 34.265665 -118.476981 13 7220ft 69kts
27-Feb-21 13:45 34.281989 -118.466920 11 7852ft 65kts
27-Feb-21 13:46 34.298781 -118.456717 12 8382ft 71kts
27-Feb-21 13:47 34.317295 -118.456597 346 8893ft 69kts
27-Feb-21 13:48 34.337078 -118.458582 346 9393ft 73kts
27-Feb-21 13:49 34.357636 -118.460456 345 9909ft 73kts
27-Feb-21 13:50 34.376636 -118.462065 348 10474ft 64kts
27-Feb-21 13:51 34.392564 -118.443508 32 10928ft 84kts
27-Feb-21 13:52 34.410056 -118.418235 38 11066ft 118kts
27-Feb-21 13:53 34.432240 -118.384407 41 11063ft 135kts
27-Feb-21 13:54 34.455150 -118.347449 43 11072ft 139kts
27-Feb-21 13:55 34.475633 -118.310660 46 11078ft 124kts
27-Feb-21 13:56 34.497036 -118.279405 39 11092ft 121kts
27-Feb-21 13:57 34.517808 -118.246900 41 11098ft 123kts
27-Feb-21 13:58 34.538133 -118.212427 44 11034ft 128kts
27-Feb-21 13:59 34.559951 -118.179747 39 11033ft 123kts
27-Feb-21 14:00 34.581098 -118.146852 41 11034ft 124kts
27-Feb-21 14:01 34.601267 -118.112590 44 11035ft 125kts
27-Feb-21 14:02 34.622699 -118.080221 38 11035ft 122kts
27-Feb-21 14:03 34.638727 -118.042195 75 11003ft 141kts
27-Feb-21 14:04 34.640334 -117.995499 72 10991ft 138kts
27-Feb-21 14:05 34.646442 -117.949202 73 10986ft 138kts
27-Feb-21 14:06 34.651936 -117.903161 74 10980ft 137kts
27-Feb-21 14:07 34.657096 -117.857126 74 10974ft 138kts
27-Feb-21 14:08 34.662087 -117.811181 74 10967ft 138kts
27-Feb-21 14:09 34.667026 -117.765025 74 10962ft 138kts
27-Feb-21 14:10 34.672251 -117.718953 74 10956ft 137kts
27-Feb-21 14:11 34.677805 -117.673295 72 10953ft 136kts
27-Feb-21 14:12 34.688438 -117.630327 59 10950ft 132kts
27-Feb-21 14:13 34.701072 -117.588408 61 10951ft 133kts
27-Feb-21 14:14 34.712334 -117.545584 64 10958ft 133kts
27-Feb-21 14:15 34.722222 -117.501987 66 10964ft 133kts
27-Feb-21 14:17 34.734096 -117.459786 58 10969ft 130kts
27-Feb-21 14:18 34.744857 -117.425211 60 10973ft 131kts
27-Feb-21 14:19 34.754888 -117.389102 63 10978ft 131kts
27-Feb-21 14:20 34.765261 -117.346232 66 10979ft 132kts
27-Feb-21 14:21 34.773934 -117.303327 68 10978ft 129kts
27-Feb-21 14:22 34.786432 -117.263647 59 10978ft 125kts
27-Feb-21 14:23 34.798172 -117.223506 62 10978ft 125kts
27-Feb-21 14:24 34.808436 -117.182961 64 10978ft 125kts
27-Feb-21 14:25 34.817352 -117.141720 67 10979ft 126kts
27-Feb-21 14:26 34.828297 -117.101887 58 10979ft 123kts
27-Feb-21 14:27 34.840674 -117.062465 61 10979ft 126kts
27-Feb-21 14:28 34.852091 -117.021600 64 10979ft 129kts
27-Feb-21 14:29 34.862288 -116.980011 67 11026ft 129kts
27-Feb-21 14:30 34.871988 -116.935563 71 11023ft 136kts
27-Feb-21 14:31 34.881973 -116.893307 61 11025ft 125kts
27-Feb-21 14:32 34.895028 -116.853572 64 11027ft 127kts
27-Feb-21 14:33 34.906865 -116.812864 66 11027ft 127kts
27-Feb-21 14:34 34.917462 -116.771794 69 11027ft 127kts
27-Feb-21 14:34 34.926017 -116.737663 67 11027ft 126kts
27-Feb-21 14:36 34.937797 -116.689988 70 11027ft 125kts
27-Feb-21 14:36 34.945301 -116.655922 70 11027ft 124kts
27-Feb-21 14:38 34.955030 -116.608170 72 11027ft 124kts
27-Feb-21 14:39 34.967582 -116.569681 58 11027ft 121kts
27-Feb-21 14:39 34.982597 -116.541417 52 11027ft 119kts
27-Feb-21 14:41 34.999768 -116.499334 52 11029ft 117kts
27-Feb-21 14:41 35.014046 -116.471084 54 11027ft 117kts
27-Feb-21 14:42 35.030498 -116.437096 55 11027ft 116kts
27-Feb-21 14:43 35.046480 -116.402959 56 11026ft 115kts
27-Feb-21 14:44 35.062066 -116.368669 56 11027ft 115kts
27-Feb-21 14:45 35.077361 -116.334118 58 11025ft 115kts
27-Feb-21 14:46 35.092373 -116.299738 58 11025ft 114kts
27-Feb-21 14:47 35.107422 -116.265741 57 11026ft 114kts
27-Feb-21 14:48 35.122716 -116.231370 57 11026ft 115kts
27-Feb-21 14:49 35.137901 -116.197057 57 11026ft 115kts
27-Feb-21 14:50 35.153122 -116.162551 57 11026ft 115kts
27-Feb-21 14:51 35.168347 -116.127970 57 11027ft 116kts
27-Feb-21 14:52 35.183740 -116.092946 57 11027ft 117kts
27-Feb-21 14:53 35.199085 -116.057987 57 11027ft 117kts
27-Feb-21 14:54 35.214467 -116.022902 57 11027ft 117kts
27-Feb-21 14:55 35.229845 -115.987790 57 11027ft 117kts
27-Feb-21 14:56 35.245237 -115.952607 57 11027ft 117kts
27-Feb-21 14:57 35.260616 -115.917417 57 11027ft 117kts
27-Feb-21 14:58 35.275961 -115.882267 57 11029ft 117kts
27-Feb-21 14:59 35.291278 -115.847145 57 11032ft 117kts
27-Feb-21 15:00 35.306565 -115.812219 57 11034ft 116kts
27-Feb-21 15:01 35.322029 -115.777318 58 11037ft 116kts
27-Feb-21 15:02 35.337994 -115.743186 32 11045ft 111kts
27-Feb-21 15:03 35.362066 -115.718539 37 11042ft 113kts
27-Feb-21 15:04 35.385595 -115.690754 40 10789ft 120kts
27-Feb-21 15:05 35.408572 -115.660695 43 10500ft 122kts
27-Feb-21 15:06 35.430161 -115.629115 46 10199ft 119kts
27-Feb-21 15:07 35.449570 -115.597141 49 10013ft 111kts
27-Feb-21 15:08 35.472579 -115.570897 35 10020ft 116kts
27-Feb-21 15:09 35.496669 -115.543830 38 10018ft 119kts
27-Feb-21 15:10 35.520023 -115.514809 41 10018ft 120kts
27-Feb-21 15:11 35.542103 -115.484489 44 9815ft 115kts
27-Feb-21 15:12 35.561882 -115.453700 48 9316ft 114kts
27-Feb-21 15:13 35.579962 -115.422018 41 8730ft 111kts
27-Feb-21 15:14 35.603928 -115.401162 1 8132ft 101kts
27-Feb-21 15:15 35.629641 -115.398374 0 8021ft 91kts
27-Feb-21 15:16 35.656276 -115.395651 0 8020ft 99kts
27-Feb-21 15:17 35.684601 -115.392946 0 8019ft 104kts
27-Feb-21 15:18 35.713795 -115.390293 0 8018ft 106kts
27-Feb-21 15:19 35.743186 -115.385753 10 8018ft 108kts
27-Feb-21 15:20 35.772259 -115.376418 10 8018ft 108kts
27-Feb-21 15:21 35.800296 -115.362524 19 8018ft 109kts
27-Feb-21 15:22 35.827981 -115.346691 20 8016ft 109kts
27-Feb-21 15:23 35.855551 -115.330961 20 8015ft 109kts
27-Feb-21 15:24 35.882991 -115.315317 20 7878ft 103kts
27-Feb-21 15:25 35.906342 -115.300333 23 7629ft 88kts
27-Feb-21 15:26 35.926537 -115.284981 27 7191ft 90kts
27-Feb-21 15:27 35.948304 -115.266991 28 6700ft 96kts
27-Feb-21 15:28 35.965401 -115.244532 53 5983ft 90kts
27-Feb-21 15:29 35.983127 -115.225303 23 5275ft 85kts
27-Feb-21 15:30 36.003920 -115.211299 23 4565ft 84kts
27-Feb-21 15:31 36.024836 -115.199648 20 3856ft 82kts
27-Feb-21 15:32 36.045080 -115.187571 20 3068ft 79kts
27-Feb-21 15:33 36.062790 -115.177500 18 2572ft 62kts
27-Feb-21 15:34 36.077174 -115.169365 20 2204ft 49kts
27-Feb-21 15:35 36.082453 -115.167444 299 2157ft 0kts
27-Feb-21 15:36 36.082482 -115.167507 299 2157ft 0kts
27-Feb-21 15:37 36.083394 -115.168241 29 2158ft 14kts
27-Feb-21 15:38 36.086502 -115.167368 58 2148ft 9kts
27-Feb-21 15:39 36.086416 -115.167137 155 2148ft 0kts
27-Feb-21 15:40 36.086416 -115.167137 155 2148ft 0kts
27-Feb-21 15:41 36.086416 -115.167137 155 2148ft 0kts

Navigation Log

Ident Type
Flight plan parsing failed, navigation log unavailable